createdAt,value
2023-02-16T00:01:59.677Z,117.60
2023-02-16T00:05:01.193Z,117.50
2023-02-16T00:08:02.996Z,128.10
2023-02-16T00:14:09.432Z,275.30
2023-02-16T00:17:11.503Z,263.10
2023-02-16T00:20:17.503Z,200.90
2023-02-16T00:23:19.080Z,209.70
2023-02-16T00:26:24.085Z,314.70
2023-02-16T00:29:32.463Z,284.20
2023-02-16T00:32:34.022Z,296.60
2023-02-16T00:35:35.566Z,244.60
2023-02-16T00:41:39.336Z,228.60
2023-02-16T00:44:46.110Z,231.60
2023-02-16T00:47:50.402Z,244.10
2023-02-16T00:50:52.013Z,336.30
2023-02-16T00:53:53.552Z,290.40
2023-02-16T00:56:55.099Z,215.80
2023-02-16T01:00:06.808Z,244.50
2023-02-16T01:03:16.110Z,224.20
2023-02-16T01:06:17.799Z,226.00
2023-02-16T01:09:20.794Z,226.10
2023-02-16T01:12:22.377Z,201.90
2023-02-16T01:15:25.250Z,222.80
2023-02-16T01:18:26.867Z,186.60
2023-02-16T01:21:28.468Z,173.80
2023-02-16T01:24:30.173Z,172.80
2023-02-16T01:27:31.871Z,154.40
2023-02-16T01:33:35.043Z,165.30
2023-02-16T01:36:39.468Z,156.50
2023-02-16T01:39:44.339Z,172.30
2023-02-16T01:46:07.692Z,158.40
2023-02-16T01:49:17.565Z,155.40
2023-02-16T01:52:25.199Z,169.70
2023-02-16T01:55:31.513Z,167.00
2023-02-16T01:58:42.855Z,177.60
2023-02-16T02:01:51.189Z,201.10
2023-02-16T02:04:55.990Z,187.70
2023-02-16T02:08:19.307Z,216.30
2023-02-16T02:11:28.096Z,243.40
2023-02-16T02:14:35.529Z,245.90
2023-02-16T02:17:37.064Z,273.10
2023-02-16T02:20:53.033Z,202.80
2023-02-16T02:24:32.096Z,176.40
2023-02-16T02:27:37.693Z,175.50
2023-02-16T02:30:48.635Z,168.90
2023-02-16T02:34:03.913Z,179.70
2023-02-16T02:37:28.964Z,185.70
2023-02-16T02:41:12.630Z,212.60
2023-02-16T02:44:18.932Z,226.10
2023-02-16T02:47:21.564Z,245.80
2023-02-16T02:50:42.037Z,284.20
2023-02-16T02:53:47.971Z,284.10
2023-02-16T02:57:11.769Z,302.00
2023-02-16T03:00:37.817Z,310.20
2023-02-16T03:03:44.375Z,301.30
2023-02-16T03:06:49.106Z,279.80
2023-02-16T03:09:50.964Z,240.90
2023-02-16T03:12:52.552Z,213.20
2023-02-16T03:21:58.560Z,207.30
2023-02-16T03:25:00.174Z,181.40
2023-02-16T03:28:04.334Z,212.00
2023-02-16T03:31:07.576Z,236.90
2023-02-16T03:34:09.406Z,242.60
2023-02-16T03:40:14.894Z,202.90
2023-02-16T03:43:16.636Z,197.00
2023-02-16T03:49:20.740Z,168.70
2023-02-16T03:52:22.667Z,194.60
2023-02-16T03:55:25.415Z,239.50
2023-02-16T04:01:28.993Z,341.20
2023-02-16T04:04:30.834Z,351.40
2023-02-16T04:07:33.554Z,364.70
2023-02-16T04:10:37.000Z,333.60
2023-02-16T04:13:38.846Z,292.10
2023-02-16T04:16:40.836Z,265.00
2023-02-16T04:22:45.107Z,269.30
2023-02-16T04:25:46.606Z,271.50
2023-02-16T04:28:48.290Z,253.50
2023-02-16T04:31:50.240Z,280.40
2023-02-16T04:34:51.874Z,280.90
2023-02-16T04:37:53.465Z,260.80
2023-02-16T04:40:54.961Z,223.80
2023-02-16T04:43:56.512Z,245.60
2023-02-16T04:46:58.142Z,213.70
2023-02-16T04:49:59.798Z,219.90
2023-02-16T04:53:01.384Z,236.50
2023-02-16T04:56:03.175Z,236.10
2023-02-16T05:02:06.308Z,226.00
2023-02-16T05:05:08.534Z,208.40
2023-02-16T05:08:10.270Z,186.60
2023-02-16T05:11:12.285Z,193.50
2023-02-16T05:14:26.175Z,187.40
2023-02-16T05:17:27.855Z,182.40
2023-02-16T05:20:29.645Z,184.10
2023-02-16T05:23:31.238Z,188.20
2023-02-16T05:26:34.412Z,183.60
2023-02-16T05:29:36.031Z,190.20
2023-02-16T05:32:37.564Z,218.20
2023-02-16T05:35:39.227Z,289.60
2023-02-16T05:38:40.878Z,311.60
2023-02-16T05:41:42.597Z,336.90
2023-02-16T05:44:44.211Z,320.40
2023-02-16T05:47:47.291Z,306.40
2023-02-16T05:50:49.059Z,279.20
2023-02-16T05:53:51.059Z,223.00
2023-02-16T05:56:52.850Z,208.70
2023-02-16T06:02:55.915Z,206.20
2023-02-16T06:06:00.471Z,204.10
2023-02-16T06:09:02.108Z,186.20
2023-02-16T06:12:04.174Z,172.00
2023-02-16T06:15:05.992Z,152.50
2023-02-16T06:21:09.167Z,177.40
2023-02-16T06:24:12.516Z,194.20
2023-02-16T06:27:14.188Z,162.40
2023-02-16T06:30:16.549Z,139.20
2023-02-16T06:33:18.147Z,131.10
2023-02-16T06:36:20.778Z,122.50
2023-02-16T06:39:22.559Z,117.90
2023-02-16T06:42:24.097Z,114.50
2023-02-16T06:45:25.645Z,113.90
2023-02-16T06:48:27.367Z,107.80
2023-02-16T06:51:29.574Z,102.60
2023-02-16T06:54:31.230Z,102.80
2023-02-16T06:57:32.801Z,105.20
2023-02-16T07:00:34.711Z,98.70
2023-02-16T07:03:41.884Z,97.40
2023-02-16T07:09:45.218Z,99.60
2023-02-16T07:12:47.957Z,94.40
2023-02-16T07:15:49.600Z,95.00
2023-02-16T07:18:51.325Z,101.40
2023-02-16T07:24:54.490Z,97.40
2023-02-16T07:27:56.176Z,96.00
2023-02-16T07:30:57.969Z,96.50
2023-02-16T07:37:01.051Z,100.10
2023-02-16T07:40:02.686Z,98.40
2023-02-16T07:43:05.757Z,92.90
2023-02-16T07:46:07.355Z,93.80
2023-02-16T07:49:09.113Z,93.90
2023-02-16T07:52:10.966Z,91.80
2023-02-16T07:55:12.626Z,89.60
2023-02-16T07:58:14.678Z,91.20
2023-02-16T08:01:16.181Z,97.90
2023-02-16T08:04:17.846Z,94.10
2023-02-16T08:07:21.078Z,87.60
2023-02-16T08:10:22.744Z,89.70
2023-02-16T08:13:24.572Z,85.70
2023-02-16T08:19:28.911Z,94.10
2023-02-16T08:22:30.951Z,86.50
2023-02-16T08:25:36.309Z,90.40
2023-02-16T08:28:38.090Z,86.00
2023-02-16T08:31:40.099Z,82.90
2023-02-16T08:34:43.382Z,79.60
2023-02-16T08:37:45.272Z,81.30
2023-02-16T08:43:52.106Z,83.40
2023-02-16T08:46:55.628Z,79.50
2023-02-16T08:49:57.221Z,78.90
2023-02-16T08:56:04.376Z,74.50
2023-02-16T08:59:06.137Z,76.20
2023-02-16T09:02:07.744Z,71.60
2023-02-16T09:05:09.474Z,71.60
2023-02-16T09:08:11.165Z,74.00
2023-02-16T09:11:15.323Z,68.40
2023-02-16T09:14:20.883Z,65.20
2023-02-16T09:17:22.422Z,63.00
2023-02-16T09:20:24.091Z,61.30
2023-02-16T09:23:25.685Z,63.80
2023-02-16T09:26:30.247Z,61.10
2023-02-16T09:29:31.959Z,58.80
2023-02-16T09:32:33.680Z,56.10
2023-02-16T09:35:38.204Z,60.60
2023-02-16T09:38:40.310Z,58.10
2023-02-16T09:41:57.588Z,59.30
2023-02-16T09:45:07.306Z,59.80
2023-02-16T09:48:23.494Z,60.60
2023-02-16T09:51:34.763Z,60.20
2023-02-16T09:54:39.347Z,60.10
2023-02-16T09:58:07.785Z,60.50
2023-02-16T10:01:19.897Z,56.50
2023-02-16T10:04:36.132Z,62.90
2023-02-16T10:07:57.635Z,64.40
2023-02-16T10:14:30.489Z,62.60
2023-02-16T10:17:38.244Z,61.00
2023-02-16T10:20:43.361Z,61.00
2023-02-16T10:24:03.064Z,56.50
2023-02-16T10:27:08.179Z,63.40
2023-02-16T10:30:22.058Z,58.50
2023-02-16T10:33:36.021Z,55.40
2023-02-16T10:36:49.647Z,59.40
2023-02-16T10:40:12.316Z,60.50
2023-02-16T10:43:21.688Z,58.80
2023-02-16T10:46:26.287Z,61.30
2023-02-16T10:49:30.564Z,55.70
2023-02-16T10:52:37.516Z,60.00
2023-02-16T10:55:39.179Z,58.20
2023-02-16T10:58:41.225Z,56.10
2023-02-16T11:01:46.297Z,57.90
2023-02-16T11:04:49.756Z,53.90
2023-02-16T11:07:56.561Z,51.10
2023-02-16T11:10:58.262Z,53.80
2023-02-16T11:14:07.999Z,56.00
2023-02-16T11:17:12.770Z,49.90
2023-02-16T11:20:32.468Z,52.90
2023-02-16T11:23:38.989Z,52.70
2023-02-16T11:26:40.665Z,50.70
2023-02-16T11:29:42.358Z,52.10
2023-02-16T11:32:43.896Z,47.50
2023-02-16T11:35:45.880Z,48.80
2023-02-16T11:39:12.122Z,46.20
2023-02-16T11:42:36.368Z,50.90
2023-02-16T11:45:37.911Z,47.70
2023-02-16T11:48:39.618Z,42.90
2023-02-16T11:51:41.223Z,46.20
2023-02-16T11:54:52.693Z,47.00
2023-02-16T11:57:54.458Z,46.10
2023-02-16T12:01:20.581Z,44.90
2023-02-16T12:04:48.344Z,46.90
2023-02-16T12:08:06.218Z,45.70
2023-02-16T12:11:16.861Z,45.80
2023-02-16T12:14:31.498Z,49.30
2023-02-16T12:17:48.526Z,46.10
2023-02-16T12:21:04.052Z,48.30
2023-02-16T12:24:30.747Z,51.80
2023-02-16T12:27:44.934Z,52.80
2023-02-16T12:30:55.586Z,48.10
2023-02-16T12:34:28.327Z,49.80
2023-02-16T12:37:48.868Z,49.10
2023-02-16T12:40:54.163Z,56.80
2023-02-16T12:44:48.500Z,52.30
2023-02-16T12:47:58.282Z,50.50
2023-02-16T12:51:02.428Z,54.30
2023-02-16T12:54:17.859Z,50.20
2023-02-16T12:57:25.103Z,50.20
2023-02-16T13:00:46.111Z,50.00
2023-02-16T13:03:52.578Z,51.50
2023-02-16T13:07:23.571Z,50.80
2023-02-16T13:10:56.457Z,46.20
2023-02-16T13:14:01.724Z,47.50
2023-02-16T13:17:11.419Z,45.60
2023-02-16T13:20:19.509Z,48.20
2023-02-16T13:23:50.599Z,46.60
2023-02-16T13:27:06.330Z,49.10
2023-02-16T13:30:07.984Z,46.80
2023-02-16T13:33:25.820Z,50.50
2023-02-16T13:36:44.933Z,47.70
2023-02-16T13:39:55.752Z,49.70
2023-02-16T13:43:14.342Z,48.80
2023-02-16T13:46:28.939Z,50.80
2023-02-16T13:49:38.740Z,51.60
2023-02-16T13:52:41.624Z,48.20
2023-02-16T13:55:43.512Z,48.90
2023-02-16T13:58:45.128Z,47.10
2023-02-16T14:01:48.280Z,42.80
2023-02-16T14:04:50.051Z,44.60
2023-02-16T14:08:18.630Z,42.50
2023-02-16T14:11:20.304Z,41.90
2023-02-16T14:14:31.132Z,40.60
2023-02-16T14:17:34.677Z,39.90
2023-02-16T14:20:36.386Z,40.40
2023-02-16T14:23:38.008Z,41.30
2023-02-16T14:26:53.522Z,43.80
2023-02-16T14:29:58.187Z,45.90
2023-02-16T14:33:12.133Z,43.30
2023-02-16T14:36:22.025Z,45.20
2023-02-16T14:39:23.636Z,43.30
2023-02-16T14:42:29.447Z,42.30
2023-02-16T14:45:52.632Z,43.40
2023-02-16T14:49:10.141Z,44.20
2023-02-16T14:52:37.889Z,45.50
2023-02-16T14:55:54.584Z,46.70
2023-02-16T14:59:01.314Z,45.90
2023-02-16T15:02:24.446Z,45.40
2023-02-16T15:05:33.790Z,45.80
2023-02-16T15:08:38.012Z,40.70
2023-02-16T15:11:50.626Z,45.40
2023-02-16T15:15:04.460Z,42.20
2023-02-16T15:18:06.019Z,43.10
2023-02-16T15:24:22.993Z,45.40
2023-02-16T15:27:25.101Z,44.10
2023-02-16T15:30:38.913Z,48.60
2023-02-16T15:33:42.347Z,46.00
2023-02-16T15:36:45.268Z,46.50
2023-02-16T15:40:02.944Z,45.80
2023-02-16T15:43:18.508Z,45.00
2023-02-16T15:49:28.528Z,45.60
2023-02-16T15:52:35.414Z,44.20
2023-02-16T15:55:43.076Z,49.30
2023-02-16T15:58:44.657Z,45.70
2023-02-16T16:01:46.640Z,49.50
2023-02-16T16:04:54.450Z,52.50
2023-02-16T16:07:57.250Z,53.40
2023-02-16T16:10:59.038Z,56.50
2023-02-16T16:14:02.176Z,54.40
2023-02-16T16:17:03.993Z,49.20
2023-02-16T16:20:27.581Z,50.70
2023-02-16T16:23:29.434Z,55.00
2023-02-16T16:29:42.966Z,67.40
2023-02-16T16:32:44.748Z,69.60
2023-02-16T16:35:48.566Z,74.50
2023-02-16T16:39:08.679Z,75.00
2023-02-16T16:42:22.186Z,67.30
2023-02-16T16:45:41.435Z,77.00
2023-02-16T16:48:48.985Z,68.90
2023-02-16T16:51:53.651Z,74.30
2023-02-16T16:54:55.311Z,73.50
2023-02-16T17:01:08.525Z,69.50
2023-02-16T17:04:10.227Z,60.20
2023-02-16T17:07:11.843Z,58.70
2023-02-16T17:10:13.430Z,60.60
2023-02-16T17:13:16.793Z,71.70
2023-02-16T17:16:28.067Z,74.60
2023-02-16T17:19:29.664Z,82.30
2023-02-16T17:25:34.522Z,82.30
2023-02-16T17:28:36.209Z,78.30
2023-02-16T17:31:37.959Z,78.40
2023-02-16T17:34:39.654Z,77.90
2023-02-16T17:40:42.985Z,76.40
2023-02-16T17:46:46.395Z,80.60
2023-02-16T17:52:49.605Z,84.90
2023-02-16T17:55:53.603Z,79.60
2023-02-16T17:58:55.292Z,75.60
2023-02-16T18:04:58.529Z,77.40
2023-02-16T18:08:00.129Z,72.70
2023-02-16T18:14:03.265Z,74.70
2023-02-16T18:17:05.596Z,83.70
2023-02-16T18:20:07.689Z,81.50
2023-02-16T18:23:09.527Z,82.10
2023-02-16T18:29:16.929Z,79.40
2023-02-16T18:32:18.556Z,79.80
2023-02-16T18:35:20.455Z,73.20
2023-02-16T18:38:23.151Z,75.70
2023-02-16T18:41:24.785Z,70.00
2023-02-16T18:44:26.872Z,70.30
2023-02-16T18:47:28.570Z,71.70
2023-02-16T18:50:30.452Z,71.80
2023-02-16T18:53:32.218Z,74.10
2023-02-16T18:59:35.648Z,71.80
2023-02-16T19:05:38.827Z,79.20
2023-02-16T19:11:42.161Z,71.50
2023-02-16T19:14:43.843Z,73.50
2023-02-16T19:17:45.584Z,76.20
2023-02-16T19:20:47.202Z,76.50
2023-02-16T19:23:49.079Z,81.20
2023-02-16T19:26:50.711Z,79.20
2023-02-16T19:29:52.416Z,81.90
2023-02-16T19:36:04.044Z,83.10
2023-02-16T19:39:05.933Z,88.20
2023-02-16T19:45:09.562Z,93.10
2023-02-16T19:51:13.908Z,86.70
2023-02-16T19:54:15.543Z,86.60
2023-02-16T20:00:18.907Z,90.60
2023-02-16T20:03:20.611Z,93.90
2023-02-16T20:09:25.275Z,87.90
2023-02-16T20:15:28.672Z,96.70
2023-02-16T20:21:31.988Z,97.80
2023-02-16T20:27:35.116Z,90.00
2023-02-16T20:30:36.701Z,96.80
2023-02-16T20:33:38.344Z,92.80
2023-02-16T20:36:40.034Z,97.20
2023-02-16T20:39:41.870Z,94.50
2023-02-16T20:42:43.532Z,99.50
2023-02-16T20:45:45.152Z,100.20
2023-02-16T20:48:46.696Z,102.20
2023-02-16T20:51:48.388Z,103.30
2023-02-16T20:54:49.974Z,98.80
2023-02-16T20:57:51.671Z,93.60
2023-02-16T21:00:53.442Z,103.40
2023-02-16T21:03:56.169Z,97.60
2023-02-16T21:06:57.710Z,91.40
2023-02-16T21:09:59.341Z,91.40
2023-02-16T21:13:00.855Z,91.90
2023-02-16T21:16:02.478Z,99.40
2023-02-16T21:19:11.690Z,96.60
2023-02-16T21:22:21.787Z,92.90
2023-02-16T21:25:23.420Z,90.80
2023-02-16T21:31:27.176Z,96.00
2023-02-16T21:34:28.885Z,95.50
2023-02-16T21:40:32.263Z,86.40
2023-02-16T21:46:38.264Z,85.60
2023-02-16T21:49:39.850Z,85.70
2023-02-16T21:52:41.426Z,88.00
2023-02-16T21:55:43.101Z,89.40
2023-02-16T21:58:45.097Z,87.30
2023-02-16T22:01:49.109Z,91.60
2023-02-16T22:04:50.856Z,92.00
2023-02-16T22:10:54.059Z,88.60
2023-02-16T22:13:56.912Z,91.30
2023-02-16T22:16:58.930Z,92.30
2023-02-16T22:20:00.499Z,98.60
2023-02-16T22:23:03.062Z,91.10
2023-02-16T22:26:06.333Z,93.40
2023-02-16T22:29:08.898Z,95.00
2023-02-16T22:32:13.561Z,98.10
2023-02-16T22:35:15.441Z,98.20
2023-02-16T22:38:17.275Z,88.80
2023-02-16T22:44:20.722Z,92.50
2023-02-16T22:50:23.930Z,89.00
2023-02-16T22:53:27.029Z,90.60
2023-02-16T22:56:30.515Z,90.70
2023-02-16T22:59:32.149Z,90.00
2023-02-16T23:05:36.241Z,88.50
2023-02-16T23:11:39.705Z,90.50
2023-02-16T23:14:41.375Z,91.00
2023-02-16T23:17:42.920Z,91.10
2023-02-16T23:20:44.611Z,101.70
2023-02-16T23:23:47.849Z,103.30
2023-02-16T23:26:49.551Z,96.50
2023-02-16T23:32:52.884Z,96.40
2023-02-16T23:39:05.765Z,96.70
2023-02-16T23:42:07.298Z,93.10
2023-02-16T23:45:09.284Z,96.60
2023-02-16T23:48:10.818Z,104.40
2023-02-16T23:51:12.739Z,98.40
2023-02-16T23:54:14.549Z,95.40
2023-02-16T23:57:16.402Z,98.50
